sensor_id;sensor_type;location;lat;lon;timestamp;pressure;altitude;pressure_sealevel;temperature;humidity
61963;BME280;47927;42.646;23.096;2022-08-03T00:01:46;92291.00;;;17.23;58.02
61963;BME280;47927;42.646;23.096;2022-08-03T00:04:11;92285.53;;;17.38;57.75
61963;BME280;47927;42.646;23.096;2022-08-03T00:06:37;92283.09;;;17.23;58.03
61963;BME280;47927;42.646;23.096;2022-08-03T00:09:04;92281.38;;;17.40;57.51
61963;BME280;47927;42.646;23.096;2022-08-03T00:11:30;92275.34;;;17.13;58.34
61963;BME280;47927;42.646;23.096;2022-08-03T00:13:55;92276.19;;;17.06;58.30
61963;BME280;47927;42.646;23.096;2022-08-03T00:16:21;92275.09;;;17.03;58.58
61963;BME280;47927;42.646;23.096;2022-08-03T00:18:46;92277.97;;;17.13;57.99
61963;BME280;47927;42.646;23.096;2022-08-03T00:21:12;92273.34;;;17.20;57.79
61963;BME280;47927;42.646;23.096;2022-08-03T00:23:37;92272.44;;;17.30;57.74
61963;BME280;47927;42.646;23.096;2022-08-03T00:26:03;92273.09;;;17.38;57.12
61963;BME280;47927;42.646;23.096;2022-08-03T00:28:29;92273.16;;;17.35;57.15
61963;BME280;47927;42.646;23.096;2022-08-03T00:30:55;92269.53;;;17.25;57.50
61963;BME280;47927;42.646;23.096;2022-08-03T00:33:21;92275.19;;;17.23;57.56
61963;BME280;47927;42.646;23.096;2022-08-03T00:35:47;92272.63;;;17.20;57.53
61963;BME280;47927;42.646;23.096;2022-08-03T00:38:13;92263.81;;;17.03;57.88
61963;BME280;47927;42.646;23.096;2022-08-03T00:40:38;92255.22;;;16.99;58.02
61963;BME280;47927;42.646;23.096;2022-08-03T00:43:06;92266.50;;;16.99;58.08
61963;BME280;47927;42.646;23.096;2022-08-03T00:45:34;92274.34;;;16.72;59.17
61963;BME280;47927;42.646;23.096;2022-08-03T00:48:01;92265.41;;;16.66;59.26
61963;BME280;47927;42.646;23.096;2022-08-03T00:50:29;92269.41;;;16.78;58.99
61963;BME280;47927;42.646;23.096;2022-08-03T00:52:57;92268.66;;;16.77;58.89
61963;BME280;47927;42.646;23.096;2022-08-03T00:55:24;92275.75;;;16.80;58.68
61963;BME280;47927;42.646;23.096;2022-08-03T00:57:50;92269.38;;;16.81;58.49
61963;BME280;47927;42.646;23.096;2022-08-03T01:00:19;92273.16;;;16.77;59.11
61963;BME280;47927;42.646;23.096;2022-08-03T01:02:45;92270.16;;;16.78;58.49
61963;BME280;47927;42.646;23.096;2022-08-03T01:05:11;92263.56;;;16.63;59.50
61963;BME280;47927;42.646;23.096;2022-08-03T01:07:45;92258.63;;;16.65;59.46
61963;BME280;47927;42.646;23.096;2022-08-03T01:15:46;92261.13;;;16.79;59.23
61963;BME280;47927;42.646;23.096;2022-08-03T01:18:23;92260.72;;;16.81;59.30
61963;BME280;47927;42.646;23.096;2022-08-03T01:20:54;92255.19;;;16.72;59.58
61963;BME280;47927;42.646;23.096;2022-08-03T01:26:37;92253.53;;;16.51;60.64
61963;BME280;47927;42.646;23.096;2022-08-03T01:32:00;92255.84;;;16.79;59.46
61963;BME280;47927;42.646;23.096;2022-08-03T01:34:30;92257.03;;;16.75;59.93
61963;BME280;47927;42.646;23.096;2022-08-03T01:36:58;92261.81;;;16.83;59.24
61963;BME280;47927;42.646;23.096;2022-08-03T01:39:27;92239.31;;;16.79;59.61
61963;BME280;47927;42.646;23.096;2022-08-03T01:41:57;92260.03;;;17.04;58.44
61963;BME280;47927;42.646;23.096;2022-08-03T01:44:29;92262.22;;;17.09;58.29
61963;BME280;47927;42.646;23.096;2022-08-03T01:46:57;92264.97;;;17.02;58.61
61963;BME280;47927;42.646;23.096;2022-08-03T01:49:25;92262.44;;;16.60;60.14
61963;BME280;47927;42.646;23.096;2022-08-03T01:51:52;92257.69;;;16.82;59.01
61963;BME280;47927;42.646;23.096;2022-08-03T01:54:19;92259.78;;;16.95;58.85
61963;BME280;47927;42.646;23.096;2022-08-03T01:56:47;92254.56;;;16.91;58.91
61963;BME280;47927;42.646;23.096;2022-08-03T01:59:15;92252.00;;;16.88;58.82
61963;BME280;47927;42.646;23.096;2022-08-03T02:01:42;92247.97;;;16.79;58.85
61963;BME280;47927;42.646;23.096;2022-08-03T02:04:09;92250.91;;;16.51;60.37
61963;BME280;47927;42.646;23.096;2022-08-03T02:06:37;92248.78;;;16.38;60.80
61963;BME280;47927;42.646;23.096;2022-08-03T02:09:05;92249.00;;;16.55;60.14
61963;BME280;47927;42.646;23.096;2022-08-03T02:11:33;92250.66;;;16.72;59.25
61963;BME280;47927;42.646;23.096;2022-08-03T02:14:03;92253.56;;;16.81;58.86
61963;BME280;47927;42.646;23.096;2022-08-03T02:16:30;92241.09;;;16.55;59.74
61963;BME280;47927;42.646;23.096;2022-08-03T02:18:59;92247.66;;;16.70;59.60
61963;BME280;47927;42.646;23.096;2022-08-03T02:21:28;92249.84;;;16.79;59.16
61963;BME280;47927;42.646;23.096;2022-08-03T02:23:54;92252.97;;;16.67;59.10
61963;BME280;47927;42.646;23.096;2022-08-03T02:26:21;92257.84;;;16.68;58.77
61963;BME280;47927;42.646;23.096;2022-08-03T02:28:51;92248.25;;;16.51;59.39
61963;BME280;47927;42.646;23.096;2022-08-03T02:31:30;92256.09;;;16.58;59.19
61963;BME280;47927;42.646;23.096;2022-08-03T02:34:01;92259.06;;;16.60;59.12
61963;BME280;47927;42.646;23.096;2022-08-03T02:36:29;92258.34;;;16.56;59.49
61963;BME280;47927;42.646;23.096;2022-08-03T02:38:58;92257.56;;;16.59;59.49
61963;BME280;47927;42.646;23.096;2022-08-03T02:41:29;92245.53;;;16.61;59.21
61963;BME280;47927;42.646;23.096;2022-08-03T02:43:56;92251.63;;;16.55;58.79
61963;BME280;47927;42.646;23.096;2022-08-03T02:46:30;92250.63;;;16.45;59.68
61963;BME280;47927;42.646;23.096;2022-08-03T02:48:58;92245.41;;;16.38;60.11
61963;BME280;47927;42.646;23.096;2022-08-03T02:51:27;92248.41;;;16.40;59.85
61963;BME280;47927;42.646;23.096;2022-08-03T02:53:55;92242.78;;;16.38;60.24
61963;BME280;47927;42.646;23.096;2022-08-03T02:56:23;92243.09;;;16.44;59.84
61963;BME280;47927;42.646;23.096;2022-08-03T02:58:50;92247.22;;;16.45;59.79
61963;BME280;47927;42.646;23.096;2022-08-03T03:01:19;92257.09;;;16.37;60.16
61963;BME280;47927;42.646;23.096;2022-08-03T03:03:46;92247.31;;;16.37;60.06
61963;BME280;47927;42.646;23.096;2022-08-03T03:06:14;92249.47;;;16.46;59.86
61963;BME280;47927;42.646;23.096;2022-08-03T03:08:41;92256.16;;;16.51;59.40
61963;BME280;47927;42.646;23.096;2022-08-03T03:11:07;92253.88;;;16.53;59.96
61963;BME280;47927;42.646;23.096;2022-08-03T03:13:35;92258.50;;;16.45;59.98
61963;BME280;47927;42.646;23.096;2022-08-03T03:16:03;92256.16;;;16.51;59.95
61963;BME280;47927;42.646;23.096;2022-08-03T03:18:32;92256.88;;;16.55;59.96
61963;BME280;47927;42.646;23.096;2022-08-03T03:21:00;92262.88;;;16.55;60.03
61963;BME280;47927;42.646;23.096;2022-08-03T03:23:27;92259.03;;;16.63;59.39
61963;BME280;47927;42.646;23.096;2022-08-03T03:25:54;92266.50;;;16.69;59.99
61963;BME280;47927;42.646;23.096;2022-08-03T03:28:22;92268.03;;;16.66;59.81
61963;BME280;47927;42.646;23.096;2022-08-03T03:30:48;92253.06;;;16.59;59.85
61963;BME280;47927;42.646;23.096;2022-08-03T03:33:14;92260.88;;;16.67;59.84
61963;BME280;47927;42.646;23.096;2022-08-03T03:35:41;92267.56;;;16.71;59.47
61963;BME280;47927;42.646;23.096;2022-08-03T03:38:08;92270.66;;;16.66;59.67
61963;BME280;47927;42.646;23.096;2022-08-03T03:40:35;92270.97;;;16.68;59.44
61963;BME280;47927;42.646;23.096;2022-08-03T03:43:01;92269.88;;;16.69;59.17
61963;BME280;47927;42.646;23.096;2022-08-03T03:45:27;92277.31;;;16.74;59.48
61963;BME280;47927;42.646;23.096;2022-08-03T03:47:55;92275.41;;;16.78;59.55
61963;BME280;47927;42.646;23.096;2022-08-03T03:50:21;92277.22;;;16.85;59.13
61963;BME280;47927;42.646;23.096;2022-08-03T03:52:48;92274.44;;;16.96;59.17
61963;BME280;47927;42.646;23.096;2022-08-03T03:55:17;92275.75;;;17.11;59.27
61963;BME280;47927;42.646;23.096;2022-08-03T03:57:43;92280.09;;;17.21;59.14
61963;BME280;47927;42.646;23.096;2022-08-03T04:00:10;92279.16;;;17.35;59.12
61963;BME280;47927;42.646;23.096;2022-08-03T04:02:37;92275.25;;;17.47;58.67
61963;BME280;47927;42.646;23.096;2022-08-03T04:05:03;92282.81;;;17.68;58.41
61963;BME280;47927;42.646;23.096;2022-08-03T04:07:57;92287.31;;;17.95;58.04
61963;BME280;47927;42.646;23.096;2022-08-03T04:10:45;92287.03;;;18.53;57.25
61963;BME280;47927;42.646;23.096;2022-08-03T04:13:39;92282.53;;;19.46;54.76
61963;BME280;47927;42.646;23.096;2022-08-03T04:16:08;92285.22;;;20.24;52.39
61963;BME280;47927;42.646;23.096;2022-08-03T04:18:37;92292.63;;;21.68;48.82
61963;BME280;47927;42.646;23.096;2022-08-03T04:21:10;92283.97;;;23.15;45.08
61963;BME280;47927;42.646;23.096;2022-08-03T04:23:40;92287.72;;;24.45;42.08
61963;BME280;47927;42.646;23.096;2022-08-03T04:26:08;92283.63;;;25.65;40.01
61963;BME280;47927;42.646;23.096;2022-08-03T04:28:40;92284.63;;;27.03;36.35
61963;BME280;47927;42.646;23.096;2022-08-03T04:31:08;92282.22;;;27.49;35.89
61963;BME280;47927;42.646;23.096;2022-08-03T04:33:36;92281.66;;;27.45;35.63
61963;BME280;47927;42.646;23.096;2022-08-03T04:36:05;92296.81;;;27.04;36.33
61963;BME280;47927;42.646;23.096;2022-08-03T04:38:36;92289.84;;;26.82;36.45
61963;BME280;47927;42.646;23.096;2022-08-03T04:41:03;92287.56;;;26.90;37.45
61963;BME280;47927;42.646;23.096;2022-08-03T04:43:31;92287.94;;;27.13;36.59
61963;BME280;47927;42.646;23.096;2022-08-03T04:45:58;92297.03;;;27.65;35.00
61963;BME280;47927;42.646;23.096;2022-08-03T04:48:24;92299.28;;;27.67;35.17
61963;BME280;47927;42.646;23.096;2022-08-03T04:50:50;92299.91;;;27.62;34.89
61963;BME280;47927;42.646;23.096;2022-08-03T04:53:17;92305.00;;;27.45;35.78
61963;BME280;47927;42.646;23.096;2022-08-03T04:55:43;92309.53;;;27.39;35.45
61963;BME280;47927;42.646;23.096;2022-08-03T04:58:08;92307.13;;;27.11;36.09
61963;BME280;47927;42.646;23.096;2022-08-03T05:00:34;92299.28;;;27.52;36.20
61963;BME280;47927;42.646;23.096;2022-08-03T05:03:00;92304.53;;;28.11;34.54
61963;BME280;47927;42.646;23.096;2022-08-03T05:05:26;92308.78;;;28.85;34.30
61963;BME280;47927;42.646;23.096;2022-08-03T05:07:51;92309.59;;;29.43;33.48
61963;BME280;47927;42.646;23.096;2022-08-03T05:10:17;92310.69;;;30.32;31.76
61963;BME280;47927;42.646;23.096;2022-08-03T05:12:46;92313.72;;;31.39;29.83
61963;BME280;47927;42.646;23.096;2022-08-03T05:15:12;92316.13;;;32.10;29.16
61963;BME280;47927;42.646;23.096;2022-08-03T05:17:38;92325.56;;;32.50;29.17
61963;BME280;47927;42.646;23.096;2022-08-03T05:20:04;92323.19;;;33.35;28.20
61963;BME280;47927;42.646;23.096;2022-08-03T05:22:30;92327.47;;;34.64;24.57
61963;BME280;47927;42.646;23.096;2022-08-03T05:24:55;92335.66;;;35.86;24.02
61963;BME280;47927;42.646;23.096;2022-08-03T05:27:21;92333.25;;;37.15;21.77
61963;BME280;47927;42.646;23.096;2022-08-03T05:29:49;92332.31;;;38.02;20.44
61963;BME280;47927;42.646;23.096;2022-08-03T05:32:16;92338.56;;;38.75;20.52
61963;BME280;47927;42.646;23.096;2022-08-03T05:34:42;92334.38;;;39.77;18.46
61963;BME280;47927;42.646;23.096;2022-08-03T05:37:08;92338.72;;;40.42;17.77
61963;BME280;47927;42.646;23.096;2022-08-03T05:39:33;92337.97;;;40.41;17.10
61963;BME280;47927;42.646;23.096;2022-08-03T05:41:59;92331.94;;;40.73;17.58
61963;BME280;47927;42.646;23.096;2022-08-03T05:44:25;92335.88;;;41.69;16.66
61963;BME280;47927;42.646;23.096;2022-08-03T05:46:51;92341.63;;;42.65;16.25
61963;BME280;47927;42.646;23.096;2022-08-03T05:49:17;92337.03;;;42.50;15.74
61963;BME280;47927;42.646;23.096;2022-08-03T05:51:43;92344.22;;;43.15;15.41
61963;BME280;47927;42.646;23.096;2022-08-03T05:54:08;92351.53;;;43.30;14.88
61963;BME280;47927;42.646;23.096;2022-08-03T05:56:34;92358.44;;;44.12;14.45
61963;BME280;47927;42.646;23.096;2022-08-03T05:59:00;92360.03;;;44.91;13.42
61963;BME280;47927;42.646;23.096;2022-08-03T06:01:25;92354.06;;;44.66;13.22
61963;BME280;47927;42.646;23.096;2022-08-03T06:03:51;92353.25;;;44.92;14.21
61963;BME280;47927;42.646;23.096;2022-08-03T06:06:17;92355.09;;;45.89;12.59
61963;BME280;47927;42.646;23.096;2022-08-03T06:08:43;92365.84;;;46.47;12.27
61963;BME280;47927;42.646;23.096;2022-08-03T06:11:10;92369.81;;;46.66;13.01
61963;BME280;47927;42.646;23.096;2022-08-03T06:13:37;92371.34;;;46.90;12.25
61963;BME280;47927;42.646;23.096;2022-08-03T06:16:02;92363.88;;;46.81;12.14
61963;BME280;47927;42.646;23.096;2022-08-03T06:18:28;92368.03;;;46.18;12.16
61963;BME280;47927;42.646;23.096;2022-08-03T06:20:54;92372.09;;;43.21;14.06
61963;BME280;47927;42.646;23.096;2022-08-03T06:23:19;92367.72;;;44.83;12.32
61963;BME280;47927;42.646;23.096;2022-08-03T06:25:46;92375.47;;;46.05;12.91
61963;BME280;47927;42.646;23.096;2022-08-03T06:28:12;92376.06;;;47.54;11.20
61963;BME280;47927;42.646;23.096;2022-08-03T06:30:44;92375.88;;;48.09;11.01
61963;BME280;47927;42.646;23.096;2022-08-03T06:33:10;92386.19;;;48.79;9.77
61963;BME280;47927;42.646;23.096;2022-08-03T06:35:35;92383.00;;;49.59;9.09
61963;BME280;47927;42.646;23.096;2022-08-03T06:38:01;92377.19;;;49.41;10.00
61963;BME280;47927;42.646;23.096;2022-08-03T06:40:27;92371.44;;;49.63;9.19
61963;BME280;47927;42.646;23.096;2022-08-03T06:42:55;92379.00;;;50.02;8.73
61963;BME280;47927;42.646;23.096;2022-08-03T06:45:21;92375.31;;;49.97;9.02
61963;BME280;47927;42.646;23.096;2022-08-03T06:47:47;92370.91;;;50.20;8.76
61963;BME280;47927;42.646;23.096;2022-08-03T06:50:12;92376.44;;;49.92;8.63
61963;BME280;47927;42.646;23.096;2022-08-03T06:52:38;92376.25;;;50.71;7.81
61963;BME280;47927;42.646;23.096;2022-08-03T06:55:04;92376.78;;;51.11;8.54
61963;BME280;47927;42.646;23.096;2022-08-03T06:57:30;92371.28;;;50.83;7.91
61963;BME280;47927;42.646;23.096;2022-08-03T06:59:55;92366.50;;;50.14;8.01
61963;BME280;47927;42.646;23.096;2022-08-03T07:02:27;92371.53;;;50.59;7.81
61963;BME280;47927;42.646;23.096;2022-08-03T07:04:52;92365.56;;;50.79;8.01
61963;BME280;47927;42.646;23.096;2022-08-03T07:07:18;92372.28;;;51.03;7.86
61963;BME280;47927;42.646;23.096;2022-08-03T07:09:45;92371.88;;;51.09;7.41
61963;BME280;47927;42.646;23.096;2022-08-03T07:12:12;92374.22;;;51.15;8.53
61963;BME280;47927;42.646;23.096;2022-08-03T07:14:37;92366.50;;;51.13;7.79
61963;BME280;47927;42.646;23.096;2022-08-03T07:17:03;92373.31;;;51.40;7.40
61963;BME280;47927;42.646;23.096;2022-08-03T07:19:29;92370.91;;;51.64;7.39
61963;BME280;47927;42.646;23.096;2022-08-03T07:21:54;92375.31;;;51.53;7.48
61963;BME280;47927;42.646;23.096;2022-08-03T07:24:20;92376.84;;;51.26;7.36
61963;BME280;47927;42.646;23.096;2022-08-03T07:26:46;92382.00;;;50.61;8.46
61963;BME280;47927;42.646;23.096;2022-08-03T07:29:11;92373.81;;;50.49;8.24
61963;BME280;47927;42.646;23.096;2022-08-03T07:31:37;92376.81;;;48.60;9.74
61963;BME280;47927;42.646;23.096;2022-08-03T07:34:02;92378.75;;;49.44;8.74
61963;BME280;47927;42.646;23.096;2022-08-03T07:36:28;92379.66;;;49.88;8.72
61963;BME280;47927;42.646;23.096;2022-08-03T07:38:53;92383.88;;;50.29;7.73
61963;BME280;47927;42.646;23.096;2022-08-03T07:41:19;92384.75;;;50.20;8.45
61963;BME280;47927;42.646;23.096;2022-08-03T07:43:44;92388.66;;;50.14;8.95
61963;BME280;47927;42.646;23.096;2022-08-03T07:46:10;92385.97;;;49.38;8.89
61963;BME280;47927;42.646;23.096;2022-08-03T07:48:35;92390.63;;;49.21;8.83
61963;BME280;47927;42.646;23.096;2022-08-03T07:51:01;92392.34;;;49.15;9.23
61963;BME280;47927;42.646;23.096;2022-08-03T07:53:28;92388.53;;;49.34;8.01
61963;BME280;47927;42.646;23.096;2022-08-03T07:55:53;92391.53;;;49.63;8.53
61963;BME280;47927;42.646;23.096;2022-08-03T07:58:19;92393.25;;;49.19;8.37
61963;BME280;47927;42.646;23.096;2022-08-03T08:00:47;92398.56;;;49.15;8.74
61963;BME280;47927;42.646;23.096;2022-08-03T08:03:12;92394.28;;;49.38;8.66
61963;BME280;47927;42.646;23.096;2022-08-03T08:05:38;92390.28;;;49.92;8.80
61963;BME280;47927;42.646;23.096;2022-08-03T08:08:04;92393.81;;;49.41;9.01
61963;BME280;47927;42.646;23.096;2022-08-03T08:10:30;92396.84;;;48.84;9.43
61963;BME280;47927;42.646;23.096;2022-08-03T08:12:57;92393.13;;;49.17;9.13
61963;BME280;47927;42.646;23.096;2022-08-03T08:15:23;92396.16;;;49.47;9.31
61963;BME280;47927;42.646;23.096;2022-08-03T08:17:57;92395.44;;;48.48;9.19
61963;BME280;47927;42.646;23.096;2022-08-03T08:20:29;92394.88;;;48.03;9.22
61963;BME280;47927;42.646;23.096;2022-08-03T08:22:56;92401.25;;;48.17;9.32
61963;BME280;47927;42.646;23.096;2022-08-03T08:25:22;92390.91;;;48.41;9.58
61963;BME280;47927;42.646;23.096;2022-08-03T08:27:48;92396.88;;;47.79;9.41
61963;BME280;47927;42.646;23.096;2022-08-03T08:30:17;92387.84;;;47.66;9.94
61963;BME280;47927;42.646;23.096;2022-08-03T08:32:46;92395.44;;;47.89;10.09
61963;BME280;47927;42.646;23.096;2022-08-03T08:35:12;92389.44;;;48.40;10.00
61963;BME280;47927;42.646;23.096;2022-08-03T08:37:38;92388.38;;;48.33;9.91
61963;BME280;47927;42.646;23.096;2022-08-03T08:40:05;92371.34;;;48.02;10.12
61963;BME280;47927;42.646;23.096;2022-08-03T08:42:32;92391.41;;;48.14;9.73
61963;BME280;47927;42.646;23.096;2022-08-03T08:44:59;92385.19;;;47.68;9.68
61963;BME280;47927;42.646;23.096;2022-08-03T08:47:25;92386.31;;;47.09;10.21
61963;BME280;47927;42.646;23.096;2022-08-03T08:49:54;92387.78;;;47.10;9.98
61963;BME280;47927;42.646;23.096;2022-08-03T08:52:27;92381.47;;;47.64;9.37
61963;BME280;47927;42.646;23.096;2022-08-03T08:54:57;92384.47;;;47.23;9.89
61963;BME280;47927;42.646;23.096;2022-08-03T08:57:28;92376.03;;;46.88;9.57
61963;BME280;47927;42.646;23.096;2022-08-03T08:59:55;92377.97;;;46.23;10.17
61963;BME280;47927;42.646;23.096;2022-08-03T09:02:25;92371.16;;;45.92;10.62
61963;BME280;47927;42.646;23.096;2022-08-03T09:04:53;92360.03;;;45.81;11.19
61963;BME280;47927;42.646;23.096;2022-08-03T09:07:19;92377.22;;;45.40;12.95
61963;BME280;47927;42.646;23.096;2022-08-03T09:09:45;92366.22;;;45.31;11.19
61963;BME280;47927;42.646;23.096;2022-08-03T09:12:10;92375.16;;;45.70;10.67
61963;BME280;47927;42.646;23.096;2022-08-03T09:14:36;92379.84;;;45.99;11.18
61963;BME280;47927;42.646;23.096;2022-08-03T09:17:03;92382.34;;;45.85;10.29
61963;BME280;47927;42.646;23.096;2022-08-03T09:19:33;92381.69;;;45.65;10.92
61963;BME280;47927;42.646;23.096;2022-08-03T09:22:16;92370.53;;;45.63;10.62
61963;BME280;47927;42.646;23.096;2022-08-03T09:25:03;92372.59;;;45.33;11.50
61963;BME280;47927;42.646;23.096;2022-08-03T09:27:41;92369.34;;;45.76;10.00
61963;BME280;47927;42.646;23.096;2022-08-03T09:30:11;92370.31;;;45.10;10.91
61963;BME280;47927;42.646;23.096;2022-08-03T09:32:37;92368.13;;;45.18;11.61
61963;BME280;47927;42.646;23.096;2022-08-03T09:35:03;92367.41;;;45.08;11.44
61963;BME280;47927;42.646;23.096;2022-08-03T09:37:28;92372.56;;;44.55;11.22
61963;BME280;47927;42.646;23.096;2022-08-03T09:39:54;92374.56;;;44.35;11.65
61963;BME280;47927;42.646;23.096;2022-08-03T09:42:20;92366.94;;;41.88;12.93
61963;BME280;47927;42.646;23.096;2022-08-03T09:44:49;92372.31;;;41.38;12.85
61963;BME280;47927;42.646;23.096;2022-08-03T09:47:35;92364.38;;;40.00;14.39
61963;BME280;47927;42.646;23.096;2022-08-03T09:50:07;92375.41;;;39.64;14.48
61963;BME280;47927;42.646;23.096;2022-08-03T09:52:37;92365.53;;;38.08;15.50
61963;BME280;47927;42.646;23.096;2022-08-03T09:55:08;92374.06;;;37.36;17.29
61963;BME280;47927;42.646;23.096;2022-08-03T09:57:34;92360.47;;;38.12;15.31
61963;BME280;47927;42.646;23.096;2022-08-03T10:00:13;92365.72;;;39.40;15.00
61963;BME280;47927;42.646;23.096;2022-08-03T10:02:40;92367.44;;;40.58;15.05
61963;BME280;47927;42.646;23.096;2022-08-03T10:05:07;92363.09;;;40.40;13.75
61963;BME280;47927;42.646;23.096;2022-08-03T10:07:47;92370.16;;;39.74;14.51
61963;BME280;47927;42.646;23.096;2022-08-03T10:10:14;92357.47;;;38.44;15.38
61963;BME280;47927;42.646;23.096;2022-08-03T10:12:41;92347.50;;;37.08;17.25
61963;BME280;47927;42.646;23.096;2022-08-03T10:15:08;92356.88;;;34.49;20.25
61963;BME280;47927;42.646;23.096;2022-08-03T10:17:35;92351.97;;;34.91;19.77
61963;BME280;47927;42.646;23.096;2022-08-03T10:20:01;92343.06;;;35.98;19.06
61963;BME280;47927;42.646;23.096;2022-08-03T10:22:33;92342.31;;;37.31;17.15
61963;BME280;47927;42.646;23.096;2022-08-03T10:25:06;92336.72;;;37.71;16.16
61963;BME280;47927;42.646;23.096;2022-08-03T10:27:36;92331.16;;;37.55;18.73
61963;BME280;47927;42.646;23.096;2022-08-03T10:30:05;92333.88;;;37.76;16.84
61963;BME280;47927;42.646;23.096;2022-08-03T10:32:42;92337.59;;;38.36;17.43
61963;BME280;47927;42.646;23.096;2022-08-03T10:35:12;92332.47;;;37.07;17.22
61963;BME280;47927;42.646;23.096;2022-08-03T10:37:43;92339.44;;;37.71;17.06
61963;BME280;47927;42.646;23.096;2022-08-03T10:40:12;92331.94;;;38.34;14.74
61963;BME280;47927;42.646;23.096;2022-08-03T10:42:41;92333.84;;;38.18;15.33
61963;BME280;47927;42.646;23.096;2022-08-03T10:45:38;92326.97;;;36.46;17.45
61963;BME280;47927;42.646;23.096;2022-08-03T10:48:06;92317.09;;;36.96;17.67
61963;BME280;47927;42.646;23.096;2022-08-03T10:50:32;92323.47;;;37.33;18.83
61963;BME280;47927;42.646;23.096;2022-08-03T10:55:43;92331.97;;;36.28;18.38
61963;BME280;47927;42.646;23.096;2022-08-03T11:01:03;92316.09;;;35.60;19.69
61963;BME280;47927;42.646;23.096;2022-08-03T11:03:29;92314.47;;;35.71;19.58
61963;BME280;47927;42.646;23.096;2022-08-03T11:06:15;92317.94;;;35.85;18.48
61963;BME280;47927;42.646;23.096;2022-08-03T11:08:44;92318.19;;;36.40;18.73
61963;BME280;47927;42.646;23.096;2022-08-03T11:14:01;92319.59;;;34.42;21.19
61963;BME280;47927;42.646;23.096;2022-08-03T11:16:28;92309.16;;;33.42;21.24
61963;BME280;47927;42.646;23.096;2022-08-03T11:19:05;92307.59;;;32.75;22.22
61963;BME280;47927;42.646;23.096;2022-08-03T11:21:55;92314.34;;;32.93;22.91
61963;BME280;47927;42.646;23.096;2022-08-03T11:30:07;92315.38;;;34.22;20.51
61963;BME280;47927;42.646;23.096;2022-08-03T11:35:55;92322.72;;;32.84;22.07
61963;BME280;47927;42.646;23.096;2022-08-03T11:38:03;92321.16;;;32.41;25.34
61963;BME280;47927;42.646;23.096;2022-08-03T11:46:10;92320.81;;;31.42;26.09
61963;BME280;47927;42.646;23.096;2022-08-03T11:48:43;92305.75;;;30.84;26.17
61963;BME280;47927;42.646;23.096;2022-08-03T11:51:26;92324.19;;;30.49;27.38
61963;BME280;47927;42.646;23.096;2022-08-03T11:56:18;92314.72;;;30.16;28.79
61963;BME280;47927;42.646;23.096;2022-08-03T11:58:55;92320.25;;;29.95;29.03
61963;BME280;47927;42.646;23.096;2022-08-03T12:01:22;92312.44;;;29.97;28.68
61963;BME280;47927;42.646;23.096;2022-08-03T12:03:48;92323.63;;;29.59;28.06
61963;BME280;47927;42.646;23.096;2022-08-03T12:06:15;92324.81;;;29.26;29.16
61963;BME280;47927;42.646;23.096;2022-08-03T12:08:42;92311.75;;;29.39;28.84
61963;BME280;47927;42.646;23.096;2022-08-03T12:11:10;92308.97;;;29.28;28.84
61963;BME280;47927;42.646;23.096;2022-08-03T12:13:43;92313.13;;;29.29;31.35
61963;BME280;47927;42.646;23.096;2022-08-03T12:16:16;92308.28;;;28.81;31.01
61963;BME280;47927;42.646;23.096;2022-08-03T12:18:42;92302.38;;;28.77;32.38
61963;BME280;47927;42.646;23.096;2022-08-03T12:21:09;92308.88;;;28.70;30.80
61963;BME280;47927;42.646;23.096;2022-08-03T12:23:36;92299.22;;;28.37;30.65
61963;BME280;47927;42.646;23.096;2022-08-03T12:26:07;92300.72;;;28.38;30.03
61963;BME280;47927;42.646;23.096;2022-08-03T12:28:34;92297.56;;;28.40;29.65
61963;BME280;47927;42.646;23.096;2022-08-03T12:31:06;92291.00;;;28.61;27.33
61963;BME280;47927;42.646;23.096;2022-08-03T12:33:56;92289.19;;;28.99;27.00
61963;BME280;47927;42.646;23.096;2022-08-03T12:36:22;92295.31;;;29.26;24.97
61963;BME280;47927;42.646;23.096;2022-08-03T12:38:59;92290.94;;;29.28;24.74
61963;BME280;47927;42.646;23.096;2022-08-03T12:41:31;92287.25;;;29.58;24.72
61963;BME280;47927;42.646;23.096;2022-08-03T12:43:58;92286.25;;;29.55;24.81
61963;BME280;47927;42.646;23.096;2022-08-03T12:46:29;92265.75;;;29.89;25.55
61963;BME280;47927;42.646;23.096;2022-08-03T12:51:28;92278.69;;;30.39;26.33
61963;BME280;47927;42.646;23.096;2022-08-03T12:53:56;92273.38;;;30.51;26.82
61963;BME280;47927;42.646;23.096;2022-08-03T12:56:22;92277.78;;;30.54;28.58
61963;BME280;47927;42.646;23.096;2022-08-03T12:58:48;92279.81;;;30.76;28.60
61963;BME280;47927;42.646;23.096;2022-08-03T13:01:15;92275.56;;;30.47;28.21
61963;BME280;47927;42.646;23.096;2022-08-03T13:03:42;92283.09;;;30.42;28.31
61963;BME280;47927;42.646;23.096;2022-08-03T13:06:16;92279.25;;;30.55;27.66
61963;BME280;47927;42.646;23.096;2022-08-03T13:08:43;92267.03;;;30.59;27.63
61963;BME280;47927;42.646;23.096;2022-08-03T13:11:21;92276.88;;;30.74;26.94
61963;BME280;47927;42.646;23.096;2022-08-03T13:13:49;92268.84;;;30.85;26.78
61963;BME280;47927;42.646;23.096;2022-08-03T13:16:15;92278.81;;;30.68;26.79
61963;BME280;47927;42.646;23.096;2022-08-03T13:18:40;92272.94;;;30.75;27.08
61963;BME280;47927;42.646;23.096;2022-08-03T13:21:06;92274.41;;;30.64;27.01
61963;BME280;47927;42.646;23.096;2022-08-03T13:23:31;92274.66;;;30.72;26.46
61963;BME280;47927;42.646;23.096;2022-08-03T13:25:58;92268.56;;;30.77;27.02
61963;BME280;47927;42.646;23.096;2022-08-03T13:28:23;92272.00;;;30.83;26.85
61963;BME280;47927;42.646;23.096;2022-08-03T13:30:49;92275.16;;;30.76;27.93
61963;BME280;47927;42.646;23.096;2022-08-03T13:33:15;92268.28;;;30.70;27.58
61963;BME280;47927;42.646;23.096;2022-08-03T13:35:40;92273.31;;;30.39;27.62
61963;BME280;47927;42.646;23.096;2022-08-03T13:38:06;92273.38;;;30.51;27.54